sensor_id;sensor_type;location;lat;lon;timestamp;pressure;altitude;pressure_sealevel;temperature;humidity
66547;BME280;53400;50.364;14.874;2023-04-10T00:01:20;99532.19;;;6.56;100.00
66547;BME280;53400;50.364;14.874;2023-04-10T00:03:49;99533.03;;;6.63;100.00
66547;BME280;53400;50.364;14.874;2023-04-10T00:06:15;99539.13;;;6.85;100.00
66547;BME280;53400;50.364;14.874;2023-04-10T00:08:42;99538.34;;;6.56;100.00
66547;BME280;53400;50.364;14.874;2023-04-10T00:11:08;99526.88;;;6.56;100.00
66547;BME280;53400;50.364;14.874;2023-04-10T00:13:35;99530.38;;;6.63;100.00
66547;BME280;53400;50.364;14.874;2023-04-10T00:16:01;99524.78;;;6.86;100.00
66547;BME280;53400;50.364;14.874;2023-04-10T00:18:28;99527.84;;;6.89;100.00
66547;BME280;53400;50.364;14.874;2023-04-10T00:20:55;99527.03;;;6.89;100.00
66547;BME280;53400;50.364;14.874;2023-04-10T00:23:22;99530.22;;;6.71;100.00
66547;BME280;53400;50.364;14.874;2023-04-10T00:25:51;99521.44;;;6.71;100.00
66547;BME280;53400;50.364;14.874;2023-04-10T00:28:18;99518.09;;;6.62;100.00
66547;BME280;53400;50.364;14.874;2023-04-10T00:30:44;99514.25;;;7.19;100.00
66547;BME280;53400;50.364;14.874;2023-04-10T00:33:11;99508.97;;;6.84;100.00
66547;BME280;53400;50.364;14.874;2023-04-10T00:35:38;99506.56;;;6.48;100.00
66547;BME280;53400;50.364;14.874;2023-04-10T00:38:06;99505.59;;;6.56;100.00
66547;BME280;53400;50.364;14.874;2023-04-10T00:40:34;99497.22;;;6.59;100.00
66547;BME280;53400;50.364;14.874;2023-04-10T00:43:00;99499.69;;;6.60;100.00
66547;BME280;53400;50.364;14.874;2023-04-10T00:45:28;99504.50;;;6.43;100.00
66547;BME280;53400;50.364;14.874;2023-04-10T00:47:56;99501.81;;;6.37;100.00
66547;BME280;53400;50.364;14.874;2023-04-10T00:50:23;99502.59;;;6.31;100.00
66547;BME280;53400;50.364;14.874;2023-04-10T00:52:50;99494.97;;;6.21;100.00
66547;BME280;53400;50.364;14.874;2023-04-10T00:55:19;99493.88;;;6.09;100.00
66547;BME280;53400;50.364;14.874;2023-04-10T00:57:45;99496.38;;;6.24;100.00
66547;BME280;53400;50.364;14.874;2023-04-10T01:00:14;99498.63;;;6.55;100.00
66547;BME280;53400;50.364;14.874;2023-04-10T01:02:41;99491.19;;;6.43;100.00
66547;BME280;53400;50.364;14.874;2023-04-10T01:05:09;99489.97;;;6.39;100.00
66547;BME280;53400;50.364;14.874;2023-04-10T01:07:46;99496.53;;;6.50;100.00
66547;BME280;53400;50.364;14.874;2023-04-10T01:10:19;99499.22;;;6.57;100.00
66547;BME280;53400;50.364;14.874;2023-04-10T01:12:55;99490.44;;;6.56;100.00
66547;BME280;53400;50.364;14.874;2023-04-10T01:15:26;99493.13;;;6.22;100.00
66547;BME280;53400;50.364;14.874;2023-04-10T01:17:58;99495.09;;;6.13;100.00
66547;BME280;53400;50.364;14.874;2023-04-10T01:20:30;99496.91;;;5.84;100.00
66547;BME280;53400;50.364;14.874;2023-04-10T01:23:24;99490.59;;;5.85;100.00
66547;BME280;53400;50.364;14.874;2023-04-10T01:26:00;99491.38;;;5.79;100.00
66547;BME280;53400;50.364;14.874;2023-04-10T01:29:00;99482.78;;;5.56;100.00
66547;BME280;53400;50.364;14.874;2023-04-10T01:31:38;99483.41;;;5.58;100.00
66547;BME280;53400;50.364;14.874;2023-04-10T01:34:08;99483.41;;;5.58;100.00
66547;BME280;53400;50.364;14.874;2023-04-10T01:36:38;99482.59;;;5.57;100.00
66547;BME280;53400;50.364;14.874;2023-04-10T01:39:07;99488.19;;;5.69;100.00
66547;BME280;53400;50.364;14.874;2023-04-10T01:41:36;99483.16;;;5.52;100.00
66547;BME280;53400;50.364;14.874;2023-04-10T01:44:06;99487.53;;;5.60;100.00
66547;BME280;53400;50.364;14.874;2023-04-10T01:46:37;99484.66;;;5.62;100.00
66547;BME280;53400;50.364;14.874;2023-04-10T01:49:04;99488.03;;;6.27;100.00
66547;BME280;53400;50.364;14.874;2023-04-10T01:51:33;99489.59;;;6.49;100.00
66547;BME280;53400;50.364;14.874;2023-04-10T01:54:01;99490.34;;;6.84;100.00
66547;BME280;53400;50.364;14.874;2023-04-10T01:56:29;99492.38;;;6.76;100.00
66547;BME280;53400;50.364;14.874;2023-04-10T01:59:00;99490.91;;;6.66;100.00
66547;BME280;53400;50.364;14.874;2023-04-10T02:01:29;99491.34;;;6.77;100.00
66547;BME280;53400;50.364;14.874;2023-04-10T02:03:57;99493.13;;;6.63;100.00
66547;BME280;53400;50.364;14.874;2023-04-10T02:06:32;99489.84;;;6.61;100.00
66547;BME280;53400;50.364;14.874;2023-04-10T02:09:07;99486.44;;;6.39;100.00
66547;BME280;53400;50.364;14.874;2023-04-10T02:11:40;99490.34;;;6.36;100.00
66547;BME280;53400;50.364;14.874;2023-04-10T02:14:10;99491.00;;;6.10;100.00
66547;BME280;53400;50.364;14.874;2023-04-10T02:16:40;99486.50;;;6.11;100.00
66547;BME280;53400;50.364;14.874;2023-04-10T02:19:09;99486.91;;;6.42;100.00
66547;BME280;53400;50.364;14.874;2023-04-10T02:21:36;99493.50;;;6.53;100.00
66547;BME280;53400;50.364;14.874;2023-04-10T02:24:05;99489.28;;;6.31;100.00
66547;BME280;53400;50.364;14.874;2023-04-10T02:26:44;99485.56;;;6.25;100.00
66547;BME280;53400;50.364;14.874;2023-04-10T02:29:10;99489.00;;;6.19;100.00
66547;BME280;53400;50.364;14.874;2023-04-10T02:31:39;99486.91;;;5.86;100.00
66547;BME280;53400;50.364;14.874;2023-04-10T02:34:06;99485.66;;;5.82;100.00
66547;BME280;53400;50.364;14.874;2023-04-10T02:36:35;99492.31;;;5.71;100.00
66547;BME280;53400;50.364;14.874;2023-04-10T02:39:02;99491.63;;;5.63;100.00
66547;BME280;53400;50.364;14.874;2023-04-10T02:41:29;99487.59;;;5.45;100.00
66547;BME280;53400;50.364;14.874;2023-04-10T02:43:56;99490.38;;;5.37;100.00
66547;BME280;53400;50.364;14.874;2023-04-10T02:46:24;99493.34;;;5.49;100.00
66547;BME280;53400;50.364;14.874;2023-04-10T02:48:54;99489.75;;;6.06;100.00
66547;BME280;53400;50.364;14.874;2023-04-10T02:51:22;99490.72;;;5.98;100.00
66547;BME280;53400;50.364;14.874;2023-04-10T02:53:49;99493.69;;;5.89;100.00
66547;BME280;53400;50.364;14.874;2023-04-10T02:56:17;99498.19;;;6.51;100.00
66547;BME280;53400;50.364;14.874;2023-04-10T02:58:44;99498.78;;;6.88;100.00
66547;BME280;53400;50.364;14.874;2023-04-10T03:01:12;99502.66;;;6.85;100.00
66547;BME280;53400;50.364;14.874;2023-04-10T03:03:39;99500.94;;;6.71;100.00
66547;BME280;53400;50.364;14.874;2023-04-10T03:06:08;99505.25;;;6.72;100.00
66547;BME280;53400;50.364;14.874;2023-04-10T03:08:35;99492.13;;;6.64;100.00
66547;BME280;53400;50.364;14.874;2023-04-10T03:11:02;99502.00;;;6.77;100.00
66547;BME280;53400;50.364;14.874;2023-04-10T03:13:29;99497.47;;;6.71;100.00
66547;BME280;53400;50.364;14.874;2023-04-10T03:15:56;99502.41;;;6.80;100.00
66547;BME280;53400;50.364;14.874;2023-04-10T03:18:22;99501.72;;;6.58;100.00
66547;BME280;53400;50.364;14.874;2023-04-10T03:20:49;99503.38;;;6.66;100.00
66547;BME280;53400;50.364;14.874;2023-04-10T03:23:17;99502.94;;;6.56;100.00
66547;BME280;53400;50.364;14.874;2023-04-10T03:25:48;99497.88;;;6.68;100.00
66547;BME280;53400;50.364;14.874;2023-04-10T03:28:15;99501.97;;;6.70;100.00
66547;BME280;53400;50.364;14.874;2023-04-10T03:30:43;99497.81;;;6.54;100.00
66547;BME280;53400;50.364;14.874;2023-04-10T03:33:09;99501.97;;;6.63;100.00
66547;BME280;53400;50.364;14.874;2023-04-10T03:35:36;99505.47;;;6.71;100.00
66547;BME280;53400;50.364;14.874;2023-04-10T03:38:03;99509.22;;;6.48;100.00
66547;BME280;53400;50.364;14.874;2023-04-10T03:40:32;99507.72;;;6.74;100.00
66547;BME280;53400;50.364;14.874;2023-04-10T03:42:59;99508.06;;;6.57;100.00
66547;BME280;53400;50.364;14.874;2023-04-10T03:45:25;99505.19;;;6.59;100.00
66547;BME280;53400;50.364;14.874;2023-04-10T03:47:51;99495.97;;;6.20;100.00
66547;BME280;53400;50.364;14.874;2023-04-10T03:50:18;99507.88;;;5.96;100.00
66547;BME280;53400;50.364;14.874;2023-04-10T03:52:46;99504.94;;;5.91;100.00
66547;BME280;53400;50.364;14.874;2023-04-10T03:55:15;99511.94;;;5.49;100.00
66547;BME280;53400;50.364;14.874;2023-04-10T03:57:45;99508.94;;;5.80;100.00
66547;BME280;53400;50.364;14.874;2023-04-10T04:00:13;99517.72;;;6.02;100.00
66547;BME280;53400;50.364;14.874;2023-04-10T04:02:39;99507.94;;;6.37;100.00
66547;BME280;53400;50.364;14.874;2023-04-10T04:05:06;99513.81;;;6.61;100.00
66547;BME280;53400;50.364;14.874;2023-04-10T04:07:33;99517.53;;;6.66;100.00
66547;BME280;53400;50.364;14.874;2023-04-10T04:09:59;99510.25;;;6.47;100.00
66547;BME280;53400;50.364;14.874;2023-04-10T04:12:26;99516.50;;;6.68;100.00
66547;BME280;53400;50.364;14.874;2023-04-10T04:14:54;99514.59;;;6.55;100.00
66547;BME280;53400;50.364;14.874;2023-04-10T04:17:21;99511.66;;;6.43;100.00
66547;BME280;53400;50.364;14.874;2023-04-10T04:19:48;99514.22;;;6.58;100.00
66547;BME280;53400;50.364;14.874;2023-04-10T04:22:14;99510.00;;;6.07;100.00
66547;BME280;53400;50.364;14.874;2023-04-10T04:24:41;99515.72;;;6.04;100.00
66547;BME280;53400;50.364;14.874;2023-04-10T04:27:07;99513.63;;;6.28;100.00
66547;BME280;53400;50.364;14.874;2023-04-10T04:29:34;99509.56;;;6.04;100.00
66547;BME280;53400;50.364;14.874;2023-04-10T04:32:02;99519.66;;;5.65;100.00
66547;BME280;53400;50.364;14.874;2023-04-10T04:34:28;99517.19;;;5.64;100.00
66547;BME280;53400;50.364;14.874;2023-04-10T04:36:54;99521.22;;;5.81;100.00
66547;BME280;53400;50.364;14.874;2023-04-10T04:39:22;99530.75;;;6.18;100.00
66547;BME280;53400;50.364;14.874;2023-04-10T04:41:50;99535.09;;;6.61;100.00
66547;BME280;53400;50.364;14.874;2023-04-10T04:44:20;99532.72;;;6.73;100.00
66547;BME280;53400;50.364;14.874;2023-04-10T04:46:47;99535.09;;;6.61;100.00
66547;BME280;53400;50.364;14.874;2023-04-10T04:49:15;99527.81;;;6.41;100.00
66547;BME280;53400;50.364;14.874;2023-04-10T04:51:43;99533.13;;;6.07;100.00
66547;BME280;53400;50.364;14.874;2023-04-10T04:54:09;99539.50;;;6.12;100.00
66547;BME280;53400;50.364;14.874;2023-04-10T04:56:36;99545.66;;;6.13;100.00
66547;BME280;53400;50.364;14.874;2023-04-10T04:59:03;99544.00;;;6.40;100.00
66547;BME280;53400;50.364;14.874;2023-04-10T05:01:30;99550.97;;;6.48;100.00
66547;BME280;53400;50.364;14.874;2023-04-10T05:03:56;99550.19;;;6.19;100.00
66547;BME280;53400;50.364;14.874;2023-04-10T05:06:24;99554.41;;;6.41;100.00
66547;BME280;53400;50.364;14.874;2023-04-10T05:08:51;99550.47;;;6.65;100.00
66547;BME280;53400;50.364;14.874;2023-04-10T05:11:18;99552.13;;;6.32;100.00
66547;BME280;53400;50.364;14.874;2023-04-10T05:13:46;99541.03;;;6.28;100.00
66547;BME280;53400;50.364;14.874;2023-04-10T05:16:12;99551.84;;;6.55;100.00
66547;BME280;53400;50.364;14.874;2023-04-10T05:18:40;99558.31;;;6.74;100.00
66547;BME280;53400;50.364;14.874;2023-04-10T05:21:08;99549.81;;;6.57;100.00
66547;BME280;53400;50.364;14.874;2023-04-10T05:23:36;99564.81;;;6.64;100.00
66547;BME280;53400;50.364;14.874;2023-04-10T05:26:03;99560.75;;;6.75;100.00
66547;BME280;53400;50.364;14.874;2023-04-10T05:28:31;99564.13;;;6.56;100.00
66547;BME280;53400;50.364;14.874;2023-04-10T05:30:58;99561.22;;;6.51;100.00
66547;BME280;53400;50.364;14.874;2023-04-10T05:33:26;99567.44;;;6.58;100.00
66547;BME280;53400;50.364;14.874;2023-04-10T05:35:53;99561.13;;;6.31;100.00
66547;BME280;53400;50.364;14.874;2023-04-10T05:38:20;99566.09;;;5.91;100.00
66547;BME280;53400;50.364;14.874;2023-04-10T05:40:49;99569.97;;;5.88;100.00
66547;BME280;53400;50.364;14.874;2023-04-10T05:43:16;99565.81;;;6.01;100.00
66547;BME280;53400;50.364;14.874;2023-04-10T05:45:43;99564.13;;;6.21;100.00
66547;BME280;53400;50.364;14.874;2023-04-10T05:48:10;99569.84;;;6.53;100.00
66547;BME280;53400;50.364;14.874;2023-04-10T05:50:37;99569.66;;;6.26;100.00
66547;BME280;53400;50.364;14.874;2023-04-10T05:53:04;99574.81;;;6.28;100.00
66547;BME280;53400;50.364;14.874;2023-04-10T05:55:40;99569.06;;;6.24;100.00
66547;BME280;53400;50.364;14.874;2023-04-10T05:58:10;99564.94;;;6.22;100.00
66547;BME280;53400;50.364;14.874;2023-04-10T06:00:36;99576.69;;;6.34;100.00
66547;BME280;53400;50.364;14.874;2023-04-10T06:03:03;99572.38;;;6.61;100.00
66547;BME280;53400;50.364;14.874;2023-04-10T06:05:39;99574.88;;;7.17;100.00
66547;BME280;53400;50.364;14.874;2023-04-10T06:08:08;99577.34;;;6.71;100.00
66547;BME280;53400;50.364;14.874;2023-04-10T06:10:34;99573.63;;;6.72;100.00
66547;BME280;53400;50.364;14.874;2023-04-10T06:13:01;99576.81;;;6.54;100.00
66547;BME280;53400;50.364;14.874;2023-04-10T06:15:32;99579.09;;;6.29;100.00
66547;BME280;53400;50.364;14.874;2023-04-10T06:18:11;99584.00;;;6.25;100.00
66547;BME280;53400;50.364;14.874;2023-04-10T06:20:37;99583.91;;;6.12;100.00
66547;BME280;53400;50.364;14.874;2023-04-10T06:23:05;99583.19;;;6.59;100.00
66547;BME280;53400;50.364;14.874;2023-04-10T06:25:33;99582.41;;;7.00;100.00
66547;BME280;53400;50.364;14.874;2023-04-10T06:28:03;99583.63;;;6.98;100.00
66547;BME280;53400;50.364;14.874;2023-04-10T06:30:32;99578.09;;;7.06;100.00
66547;BME280;53400;50.364;14.874;2023-04-10T06:32:59;99581.63;;;7.06;100.00
66547;BME280;53400;50.364;14.874;2023-04-10T06:35:28;99587.75;;;7.07;100.00
66547;BME280;53400;50.364;14.874;2023-04-10T06:37:58;99584.81;;;6.88;100.00
66547;BME280;53400;50.364;14.874;2023-04-10T06:40:26;99587.16;;;7.11;100.00
66547;BME280;53400;50.364;14.874;2023-04-10T06:42:55;99591.16;;;7.42;100.00
66547;BME280;53400;50.364;14.874;2023-04-10T06:45:23;99595.31;;;7.65;100.00
66547;BME280;53400;50.364;14.874;2023-04-10T06:47:52;99592.66;;;7.58;100.00
66547;BME280;53400;50.364;14.874;2023-04-10T06:50:21;99592.06;;;7.82;100.00
66547;BME280;53400;50.364;14.874;2023-04-10T06:52:51;99581.66;;;7.26;100.00
66547;BME280;53400;50.364;14.874;2023-04-10T06:55:21;99585.22;;;7.47;100.00
66547;BME280;53400;50.364;14.874;2023-04-10T06:57:49;99591.84;;;8.64;100.00
66547;BME280;53400;50.364;14.874;2023-04-10T07:00:17;99589.03;;;9.62;100.00
66547;BME280;53400;50.364;14.874;2023-04-10T07:02:44;99597.34;;;8.95;100.00
66547;BME280;53400;50.364;14.874;2023-04-10T07:05:13;99593.53;;;8.45;100.00
66547;BME280;53400;50.364;14.874;2023-04-10T07:07:39;99587.97;;;9.31;100.00
66547;BME280;53400;50.364;14.874;2023-04-10T07:10:07;99585.53;;;9.23;100.00
66547;BME280;53400;50.364;14.874;2023-04-10T07:12:34;99585.72;;;9.92;99.39
66547;BME280;53400;50.364;14.874;2023-04-10T07:15:00;99584.16;;;9.84;96.53
66547;BME280;53400;50.364;14.874;2023-04-10T07:17:27;99589.03;;;10.19;95.38
66547;BME280;53400;50.364;14.874;2023-04-10T07:19:54;99588.81;;;9.25;97.86
66547;BME280;53400;50.364;14.874;2023-04-10T07:22:24;99588.66;;;9.07;100.00
66547;BME280;53400;50.364;14.874;2023-04-10T07:24:51;99587.22;;;9.49;100.00
66547;BME280;53400;50.364;14.874;2023-04-10T07:27:19;99583.00;;;9.35;98.11
66547;BME280;53400;50.364;14.874;2023-04-10T07:29:45;99576.28;;;9.19;98.09
66547;BME280;53400;50.364;14.874;2023-04-10T07:32:11;99574.88;;;9.16;100.00
66547;BME280;53400;50.364;14.874;2023-04-10T07:34:38;99579.00;;;9.51;97.86
66547;BME280;53400;50.364;14.874;2023-04-10T07:37:06;99582.28;;;9.84;93.88
66547;BME280;53400;50.364;14.874;2023-04-10T07:39:33;99575.00;;;10.23;92.13
66547;BME280;53400;50.364;14.874;2023-04-10T07:42:00;99579.06;;;10.01;92.10
66547;BME280;53400;50.364;14.874;2023-04-10T07:44:30;99579.78;;;11.01;96.95
66547;BME280;53400;50.364;14.874;2023-04-10T07:46:57;99579.94;;;11.07;91.76
66547;BME280;53400;50.364;14.874;2023-04-10T07:49:23;99574.81;;;11.65;89.79
66547;BME280;53400;50.364;14.874;2023-04-10T07:51:50;99571.25;;;11.41;87.33
66547;BME280;53400;50.364;14.874;2023-04-10T07:54:17;99575.28;;;11.92;86.42
66547;BME280;53400;50.364;14.874;2023-04-10T07:56:51;99565.44;;;10.59;87.58
66547;BME280;53400;50.364;14.874;2023-04-10T07:59:17;99563.94;;;10.82;88.02
66547;BME280;53400;50.364;14.874;2023-04-10T08:01:46;99571.28;;;11.05;86.77
66547;BME280;53400;50.364;14.874;2023-04-10T08:04:12;99565.75;;;11.36;83.35
66547;BME280;53400;50.364;14.874;2023-04-10T08:06:39;99560.41;;;10.44;86.14
66547;BME280;53400;50.364;14.874;2023-04-10T08:09:06;99561.06;;;10.40;90.03
66547;BME280;53400;50.364;14.874;2023-04-10T08:11:36;99562.41;;;10.30;88.29
66547;BME280;53400;50.364;14.874;2023-04-10T08:14:07;99561.63;;;11.03;86.25
66547;BME280;53400;50.364;14.874;2023-04-10T08:16:35;99554.13;;;11.42;83.28
66547;BME280;53400;50.364;14.874;2023-04-10T08:19:02;99555.69;;;12.04;86.77
66547;BME280;53400;50.364;14.874;2023-04-10T08:21:34;99559.09;;;12.70;80.89
66547;BME280;53400;50.364;14.874;2023-04-10T08:24:04;99551.50;;;13.30;80.33
66547;BME280;53400;50.364;14.874;2023-04-10T08:26:32;99551.63;;;12.60;78.16
66547;BME280;53400;50.364;14.874;2023-04-10T08:28:59;99556.50;;;11.92;79.83
66547;BME280;53400;50.364;14.874;2023-04-10T08:31:31;99553.97;;;12.33;76.23
66547;BME280;53400;50.364;14.874;2023-04-10T08:33:57;99555.69;;;11.92;80.11
66547;BME280;53400;50.364;14.874;2023-04-10T08:36:26;99549.31;;;12.40;75.78
66547;BME280;53400;50.364;14.874;2023-04-10T08:38:52;99550.31;;;11.32;77.34
66547;BME280;53400;50.364;14.874;2023-04-10T08:41:21;99555.66;;;11.01;78.31
66547;BME280;53400;50.364;14.874;2023-04-10T08:43:54;99552.28;;;11.55;76.79
66547;BME280;53400;50.364;14.874;2023-04-10T08:46:23;99553.25;;;11.60;77.11
66547;BME280;53400;50.364;14.874;2023-04-10T08:49:00;99541.41;;;11.49;78.22
66547;BME280;53400;50.364;14.874;2023-04-10T08:51:31;99546.22;;;11.47;77.76
66547;BME280;53400;50.364;14.874;2023-04-10T08:54:05;99551.81;;;11.88;74.96
66547;BME280;53400;50.364;14.874;2023-04-10T08:56:32;99548.59;;;11.67;73.73
66547;BME280;53400;50.364;14.874;2023-04-10T08:59:05;99550.91;;;11.64;76.41
66547;BME280;53400;50.364;14.874;2023-04-10T09:01:35;99538.72;;;11.49;76.20
66547;BME280;53400;50.364;14.874;2023-04-10T09:04:04;99549.06;;;12.06;73.80
66547;BME280;53400;50.364;14.874;2023-04-10T09:06:31;99545.81;;;11.74;77.50
66547;BME280;53400;50.364;14.874;2023-04-10T09:08:58;99533.44;;;12.27;74.30
66547;BME280;53400;50.364;14.874;2023-04-10T09:11:55;99535.94;;;12.80;71.82
66547;BME280;53400;50.364;14.874;2023-04-10T09:14:23;99532.81;;;13.12;72.48
66547;BME280;53400;50.364;14.874;2023-04-10T09:16:51;99540.66;;;12.38;72.55
66547;BME280;53400;50.364;14.874;2023-04-10T09:19:30;99525.00;;;12.99;75.01
66547;BME280;53400;50.364;14.874;2023-04-10T09:21:57;99521.88;;;12.90;74.64
66547;BME280;53400;50.364;14.874;2023-04-10T09:24:24;99533.06;;;12.99;73.05
66547;BME280;53400;50.364;14.874;2023-04-10T09:26:53;99525.53;;;13.53;71.15
66547;BME280;53400;50.364;14.874;2023-04-10T09:29:20;99521.66;;;13.20;68.97
66547;BME280;53400;50.364;14.874;2023-04-10T09:31:47;99523.59;;;12.96;68.74
66547;BME280;53400;50.364;14.874;2023-04-10T09:34:15;99520.50;;;12.88;68.54
66547;BME280;53400;50.364;14.874;2023-04-10T09:36:53;99514.59;;;13.43;67.26
66547;BME280;53400;50.364;14.874;2023-04-10T09:39:21;99514.00;;;13.12;66.46
66547;BME280;53400;50.364;14.874;2023-04-10T09:41:53;99514.72;;;12.55;66.47
66547;BME280;53400;50.364;14.874;2023-04-10T09:44:28;99514.91;;;11.83;72.74
66547;BME280;53400;50.364;14.874;2023-04-10T09:47:15;99510.66;;;11.22;74.92
66547;BME280;53400;50.364;14.874;2023-04-10T09:49:45;99503.81;;;11.26;74.55
66547;BME280;53400;50.364;14.874;2023-04-10T09:52:21;99507.28;;;11.57;72.83
66547;BME280;53400;50.364;14.874;2023-04-10T09:54:48;99504.22;;;11.41;73.67
66547;BME280;53400;50.364;14.874;2023-04-10T09:57:17;99502.06;;;11.74;72.67
66547;BME280;53400;50.364;14.874;2023-04-10T09:59:47;99497.91;;;12.48;70.60
66547;BME280;53400;50.364;14.874;2023-04-10T10:02:16;99490.31;;;12.45;67.70
66547;BME280;53400;50.364;14.874;2023-04-10T10:04:43;99492.66;;;12.30;66.15
66547;BME280;53400;50.364;14.874;2023-04-10T10:07:12;99484.81;;;12.40;68.93
66547;BME280;53400;50.364;14.874;2023-04-10T10:09:41;99483.84;;;12.70;70.88
66547;BME280;53400;50.364;14.874;2023-04-10T10:12:08;99486.03;;;12.84;67.74
66547;BME280;53400;50.364;14.874;2023-04-10T10:14:42;99478.75;;;12.45;68.86
66547;BME280;53400;50.364;14.874;2023-04-10T10:17:11;99477.38;;;12.07;71.17
66547;BME280;53400;50.364;14.874;2023-04-10T10:19:46;99477.63;;;12.05;72.09
66547;BME280;53400;50.364;14.874;2023-04-10T10:22:16;99474.09;;;11.39;71.26
66547;BME280;53400;50.364;14.874;2023-04-10T10:24:46;99473.84;;;11.29;72.18
66547;BME280;53400;50.364;14.874;2023-04-10T10:27:15;99468.28;;;11.42;72.72
66547;BME280;53400;50.364;14.874;2023-04-10T10:29:43;99468.38;;;12.25;70.94
66547;BME280;53400;50.364;14.874;2023-04-10T10:32:13;99459.22;;;12.61;68.14
66547;BME280;53400;50.364;14.874;2023-04-10T10:34:42;99453.31;;;12.76;66.07
66547;BME280;53400;50.364;14.874;2023-04-10T10:37:10;99460.59;;;13.32;64.10
66547;BME280;53400;50.364;14.874;2023-04-10T10:39:44;99463.63;;;13.53;61.90
66547;BME280;53400;50.364;14.874;2023-04-10T10:42:21;99453.50;;;13.60;63.17
66547;BME280;53400;50.364;14.874;2023-04-10T10:44:55;99455.09;;;13.73;62.09
66547;BME280;53400;50.364;14.874;2023-04-10T10:47:28;99450.91;;;13.03;62.74
66547;BME280;53400;50.364;14.874;2023-04-10T10:49:57;99454.03;;;13.91;66.33
66547;BME280;53400;50.364;14.874;2023-04-10T10:52:39;99452.22;;;12.89;63.85
66547;BME280;53400;50.364;14.874;2023-04-10T10:55:27;99449.72;;;12.99;63.43
66547;BME280;53400;50.364;14.874;2023-04-10T10:58:00;99443.81;;;13.42;63.24
66547;BME280;53400;50.364;14.874;2023-04-10T11:03:27;99435.94;;;14.08;60.35
66547;BME280;53400;50.364;14.874;2023-04-10T11:05:54;99435.66;;;13.71;61.65
66547;BME280;53400;50.364;14.874;2023-04-10T11:08:43;99433.97;;;13.19;61.60
66547;BME280;53400;50.364;14.874;2023-04-10T11:11:17;99429.53;;;13.42;63.84
66547;BME280;53400;50.364;14.874;2023-04-10T11:14:14;99423.81;;;13.89;62.75
66547;BME280;53400;50.364;14.874;2023-04-10T11:16:44;99420.91;;;12.54;67.13
66547;BME280;53400;50.364;14.874;2023-04-10T11:19:12;99419.28;;;12.41;66.08
66547;BME280;53400;50.364;14.874;2023-04-10T11:22:06;99420.00;;;12.48;65.35
66547;BME280;53400;50.364;14.874;2023-04-10T11:24:55;99415.06;;;12.85;65.97
66547;BME280;53400;50.364;14.874;2023-04-10T11:27:43;99410.91;;;13.23;69.54
66547;BME280;53400;50.364;14.874;2023-04-10T11:30:34;99405.75;;;12.76;65.05
66547;BME280;53400;50.364;14.874;2023-04-10T11:33:04;99403.53;;;13.02;66.52
66547;BME280;53400;50.364;14.874;2023-04-10T11:35:31;99399.53;;;12.88;64.23
66547;BME280;53400;50.364;14.874;2023-04-10T11:38:09;99389.44;;;12.66;64.20
66547;BME280;53400;50.364;14.874;2023-04-10T11:40:52;99386.13;;;12.76;63.18
66547;BME280;53400;50.364;14.874;2023-04-10T11:43:18;99382.16;;;12.78;64.29
66547;BME280;53400;50.364;14.874;2023-04-10T11:45:47;99378.00;;;12.59;64.29
66547;BME280;53400;50.364;14.874;2023-04-10T11:48:14;99375.13;;;12.77;64.43
66547;BME280;53400;50.364;14.874;2023-04-10T11:50:43;99374.97;;;13.13;66.50
66547;BME280;53400;50.364;14.874;2023-04-10T11:53:17;99369.69;;;12.89;64.16
66547;BME280;53400;50.364;14.874;2023-04-10T11:55:44;99371.72;;;12.82;64.82
66547;BME280;53400;50.364;14.874;2023-04-10T11:58:22;99363.44;;;13.17;63.15
66547;BME280;53400;50.364;14.874;2023-04-10T12:01:01;99356.56;;;13.21;63.46
66547;BME280;53400;50.364;14.874;2023-04-10T12:03:35;99363.63;;;12.94;63.73
66547;BME280;53400;50.364;14.874;2023-04-10T12:06:02;99355.84;;;13.43;63.10
66547;BME280;53400;50.364;14.874;2023-04-10T12:08:32;99348.75;;;13.37;63.58
66547;BME280;53400;50.364;14.874;2023-04-10T12:10:59;99345.63;;;13.45;63.61
66547;BME280;53400;50.364;14.874;2023-04-10T12:13:26;99349.47;;;13.32;63.38
66547;BME280;53400;50.364;14.874;2023-04-10T12:15:58;99351.41;;;12.74;63.82
66547;BME280;53400;50.364;14.874;2023-04-10T12:18:28;99345.06;;;13.09;63.70
66547;BME280;53400;50.364;14.874;2023-04-10T12:20:57;99334.34;;;13.82;65.37
66547;BME280;53400;50.364;14.874;2023-04-10T12:23:25;99336.47;;;13.80;61.85
66547;BME280;53400;50.364;14.874;2023-04-10T12:26:09;99332.09;;;13.57;61.38
66547;BME280;53400;50.364;14.874;2023-04-10T12:28:36;99334.84;;;13.79;61.00
66547;BME280;53400;50.364;14.874;2023-04-10T12:31:05;99323.38;;;14.10;59.28
66547;BME280;53400;50.364;14.874;2023-04-10T12:33:32;99320.59;;;13.44;60.40
66547;BME280;53400;50.364;14.874;2023-04-10T12:35:59;99325.91;;;13.56;61.64
66547;BME280;53400;50.364;14.874;2023-04-10T12:38:39;99314.25;;;13.72;61.64
66547;BME280;53400;50.364;14.874;2023-04-10T12:41:07;99313.72;;;13.70;60.83
66547;BME280;53400;50.364;14.874;2023-04-10T12:43:36;99307.75;;;13.68;59.49
66547;BME280;53400;50.364;14.874;2023-04-10T12:46:06;99317.22;;;14.15;58.70
66547;BME280;53400;50.364;14.874;2023-04-10T12:48:33;99316.63;;;14.52;61.24
66547;BME280;53400;50.364;14.874;2023-04-10T12:50:59;99310.22;;;14.58;60.07
66547;BME280;53400;50.364;14.874;2023-04-10T12:53:26;99302.59;;;14.82;58.95
66547;BME280;53400;50.364;14.874;2023-04-10T12:56:02;99292.50;;;14.18;58.57
66547;BME280;53400;50.364;14.874;2023-04-10T12:58:30;99297.13;;;14.22;59.19
66547;BME280;53400;50.364;14.874;2023-04-10T13:00:58;99293.50;;;14.12;57.80
66547;BME280;53400;50.364;14.874;2023-04-10T13:03:26;99288.38;;;13.88;57.39
66547;BME280;53400;50.364;14.874;2023-04-10T13:05:54;99286.13;;;13.80;58.65